Time;durP1;ratioP1;P1;durP2;ratioP2;P2;SDS_P1;SDS_P2;PMS_P1;PMS_P2;Temp;Humidity;BMP_temperature;BMP_pressure;BME280_temperature;BME280_humidity;BME280_pressure;Samples;Min_cycle;Max_cycle;Signal;HPM_P1;HPM_P2
2022/04/03 00:01:35;;;;;;;1.90;1.70;;;15.00;47.60;16.10;101282.00;;;;5010439;28;20172;-52
2022/04/03 00:04:01;;;;;;;2.00;1.70;;;14.90;47.60;16.00;101290.00;;;;5009543;28;20181;-52
2022/04/03 00:06:27;;;;;;;2.07;1.87;;;14.90;47.60;16.00;101280.00;;;;5009770;28;20199;-52
2022/04/03 00:08:53;;;;;;;1.90;1.80;;;14.80;47.70;16.00;101283.00;;;;5010360;28;20544;-52
2022/04/03 00:11:20;;;;;;;1.70;1.60;;;14.80;47.70;16.00;101285.00;;;;5010645;28;20171;-52
2022/04/03 00:13:46;;;;;;;2.03;1.83;;;14.90;47.90;16.00;101288.00;;;;5009342;28;20179;-52
2022/04/03 00:16:12;;;;;;;1.83;1.70;;;14.80;47.60;16.00;101288.00;;;;5009926;28;20520;-52
2022/04/03 00:18:37;;;;;;;1.67;1.57;;;14.80;47.60;15.90;101278.00;;;;5009946;28;20195;-51
2022/04/03 00:21:03;;;;;;;1.80;1.70;;;14.80;47.90;15.90;101286.00;;;;5009887;28;20176;-52
2022/04/03 00:23:29;;;;;;;2.00;1.80;;;14.70;47.70;15.90;101285.00;;;;5009988;28;20263;-54
2022/04/03 00:25:54;;;;;;;1.80;1.70;;;14.70;47.80;15.90;101277.00;;;;5010245;28;20202;-53
2022/04/03 00:28:21;;;;;;;2.27;1.67;;;14.70;47.70;15.90;101288.00;;;;5010492;28;20592;-54
2022/04/03 00:30:47;;;;;;;1.70;1.60;;;14.70;47.80;15.90;101280.00;;;;5009828;28;20259;-53
2022/04/03 00:33:13;;;;;;;1.80;1.70;;;14.70;47.70;15.90;101285.00;;;;5010427;28;20644;-53
2022/04/03 00:35:39;;;;;;;1.80;1.70;;;14.70;47.70;15.90;101288.00;;;;5009741;28;20199;-53
2022/04/03 00:38:05;;;;;;;1.63;1.53;;;14.70;47.80;15.80;101283.00;;;;5009680;28;20417;-52
2022/04/03 00:40:30;;;;;;;1.80;1.70;;;14.70;47.80;15.80;101274.00;;;;5009845;28;20213;-52
2022/04/03 00:42:56;;;;;;;1.53;1.50;;;14.60;47.80;15.80;101287.00;;;;5009655;28;20899;-53
2022/04/03 00:45:22;;;;;;;1.70;1.60;;;14.60;47.80;15.80;101267.00;;;;5009788;28;20191;-53
2022/04/03 00:47:50;;;;;;;1.70;1.60;;;14.60;47.90;15.70;101285.00;;;;5008350;28;20644;-52
2022/04/03 00:50:16;;;;;;;1.80;1.70;;;14.60;47.90;15.70;101289.00;;;;5008540;28;20889;-52
2022/04/03 00:52:41;;;;;;;1.80;1.70;;;14.60;47.70;15.70;101285.00;;;;5008394;28;20258;-53
2022/04/03 00:55:08;;;;;;;1.53;1.43;;;14.60;47.70;15.70;101287.00;;;;5009401;28;20175;-53
2022/04/03 00:57:33;;;;;;;1.90;1.70;;;14.50;47.90;15.70;101296.00;;;;5009061;28;20597;-53
2022/04/03 00:59:59;;;;;;;1.80;1.70;;;14.50;47.90;15.70;101282.00;;;;5008229;28;20202;-52
2022/04/03 01:02:27;;;;;;;1.70;1.60;;;14.50;48.00;15.70;101290.00;;;;5008525;28;20222;-53
2022/04/03 01:04:52;;;;;;;1.67;1.57;;;14.50;48.10;15.70;101287.00;;;;5009480;28;20191;-54
2022/04/03 01:07:18;;;;;;;1.50;1.40;;;14.40;48.10;15.60;101283.00;;;;5007758;28;20241;-52
2022/04/03 01:09:44;;;;;;;1.70;1.60;;;14.40;48.10;15.60;101285.00;;;;5008174;28;20203;-52
2022/04/03 01:12:10;;;;;;;1.80;1.70;;;14.40;48.10;15.60;101279.00;;;;5009377;28;20167;-53
2022/04/03 01:14:38;;;;;;;1.53;1.43;;;14.40;48.10;15.60;101298.00;;;;5009112;28;20249;-54
2022/04/03 01:17:04;;;;;;;1.87;1.77;;;14.30;48.20;15.60;101289.00;;;;5008929;28;20187;-54
2022/04/03 01:19:30;;;;;;;1.70;1.60;;;14.30;48.20;15.50;101291.00;;;;5009427;28;20670;-54
2022/04/03 01:21:56;;;;;;;1.60;1.50;;;14.30;48.30;15.50;101288.00;;;;5008923;28;20202;-53
2022/04/03 01:24:22;;;;;;;1.70;1.60;;;14.30;48.20;15.50;101288.00;;;;5008927;28;20652;-51
2022/04/03 01:26:48;;;;;;;1.70;1.60;;;14.30;48.30;15.50;101288.00;;;;5009002;28;20206;-53
2022/04/03 01:29:15;;;;;;;1.80;1.70;;;14.30;48.20;15.50;101288.00;;;;5008003;28;20787;-54
2022/04/03 01:31:41;;;;;;;1.60;1.50;;;14.30;48.20;15.50;101290.00;;;;5015519;28;20525;-53
2022/04/03 01:34:07;;;;;;;1.60;1.50;;;14.30;48.30;15.50;101292.00;;;;5015755;28;20175;-53
2022/04/03 01:36:33;;;;;;;1.70;1.60;;;14.30;48.30;15.50;101283.00;;;;5015304;28;20182;-53
2022/04/03 01:38:58;;;;;;;1.57;1.47;;;14.30;48.20;15.40;101288.00;;;;5015439;28;20284;-51
2022/04/03 01:41:24;;;;;;;1.60;1.50;;;14.20;48.20;15.40;101279.00;;;;5015404;28;20176;-53
2022/04/03 01:43:50;;;;;;;1.70;1.60;;;14.20;48.40;15.40;101264.00;;;;5015923;28;20179;-51
2022/04/03 01:46:16;;;;;;;1.60;1.50;;;14.20;48.20;15.40;101287.00;;;;5015528;28;20571;-52
2022/04/03 01:48:41;;;;;;;1.60;1.50;;;14.20;48.20;15.40;101288.00;;;;5015837;28;20249;-52
2022/04/03 01:51:07;;;;;;;1.60;1.50;;;14.20;48.30;15.40;101284.00;;;;5015316;28;20226;-53
2022/04/03 01:53:33;;;;;;;1.70;1.60;;;14.20;48.30;15.30;101279.00;;;;5014437;28;20629;-55
2022/04/03 01:56:05;;;;;;;1.77;1.67;;;14.10;48.30;15.30;101289.00;;;;5015099;28;20179;-53
2022/04/03 01:58:31;;;;;;;1.63;1.53;;;14.10;48.30;15.30;101285.00;;;;5015396;28;20274;-53
2022/04/03 02:00:57;;;;;;;1.60;1.50;;;14.10;48.30;15.30;101278.00;;;;5015417;28;20180;-54
2022/04/03 02:03:22;;;;;;;1.70;1.60;;;14.20;48.30;15.30;101284.00;;;;5014182;28;20186;-52
2022/04/03 02:05:48;;;;;;;1.60;1.50;;;14.10;48.20;15.30;101281.00;;;;5015283;28;20207;-51
2022/04/03 02:08:14;;;;;;;1.67;1.57;;;14.10;48.30;15.30;101271.00;;;;5015565;28;20175;-53
2022/04/03 02:10:40;;;;;;;1.70;1.60;;;14.10;48.20;15.30;101287.00;;;;5015311;28;20648;-52
2022/04/03 02:13:05;;;;;;;1.77;1.67;;;14.10;48.30;15.30;101281.00;;;;5015266;28;20203;-54
2022/04/03 02:15:31;;;;;;;1.60;1.50;;;14.10;48.30;15.20;101284.00;;;;5015291;28;20183;-53
2022/04/03 02:17:57;;;;;;;1.50;1.40;;;14.00;48.20;15.20;101280.00;;;;5014708;28;20218;-53
2022/04/03 02:20:23;;;;;;;1.63;1.53;;;14.00;48.30;15.20;101286.00;;;;5015082;28;20282;-52
2022/04/03 02:22:48;;;;;;;1.60;1.50;;;14.00;48.30;15.20;101285.00;;;;5015074;28;20184;-52
2022/04/03 02:25:14;;;;;;;1.80;1.70;;;14.00;48.30;15.20;101283.00;;;;5014937;28;20226;-51
2022/04/03 02:27:44;;;;;;;1.57;1.47;;;14.00;48.30;15.20;101277.00;;;;5015092;28;20174;-52
2022/04/03 02:30:10;;;;;;;1.77;1.67;;;13.90;48.30;15.20;101286.00;;;;5015099;28;20192;-51
2022/04/03 02:32:40;;;;;;;1.60;1.50;;;14.00;48.40;15.20;101285.00;;;;5015073;28;20172;-53
2022/04/03 02:35:07;;;;;;;1.50;1.40;;;13.90;48.40;15.20;101283.00;;;;5015213;28;20176;-52
2022/04/03 02:37:34;;;;;;;1.60;1.50;;;14.00;48.40;15.10;101277.00;;;;5015101;28;20218;-53
2022/04/03 02:40:00;;;;;;;1.77;1.67;;;14.00;48.30;15.10;101278.00;;;;5014344;28;20224;-53
2022/04/03 02:42:26;;;;;;;1.60;1.50;;;13.90;48.40;15.10;101283.00;;;;5012814;28;20171;-53
2022/04/03 02:44:52;;;;;;;1.50;1.40;;;13.90;48.30;15.10;101203.00;;;;5011745;28;20203;-53
2022/04/03 02:47:18;;;;;;;1.60;1.50;;;13.90;48.50;15.10;101286.00;;;;5011842;28;20175;-52
2022/04/03 02:49:44;;;;;;;1.73;1.63;;;13.90;48.50;15.10;101277.00;;;;5011672;28;20618;-52
2022/04/03 02:52:09;;;;;;;1.60;1.50;;;13.90;48.50;15.10;101285.00;;;;5010549;28;20229;-53
2022/04/03 02:54:35;;;;;;;1.63;1.50;;;13.90;48.50;15.00;101285.00;;;;5011631;28;20255;-52
2022/04/03 02:57:01;;;;;;;1.50;1.40;;;13.90;48.60;15.00;101289.00;;;;5009540;28;20172;-51
2022/04/03 02:59:27;;;;;;;1.60;1.50;;;13.80;48.40;15.00;101282.00;;;;5011698;28;20258;-53
2022/04/03 03:01:53;;;;;;;1.73;1.60;;;13.80;48.40;15.00;101280.00;;;;5011954;28;20183;-53
2022/04/03 03:04:18;;;;;;;3.00;1.50;;;13.70;48.40;15.00;101287.00;;;;5011671;28;20176;-54
2022/04/03 03:06:44;;;;;;;1.40;1.40;;;13.70;49.40;15.00;101281.00;;;;5011341;28;20203;-53
2022/04/03 03:09:10;;;;;;;1.60;1.50;;;13.70;49.80;15.00;101260.00;;;;5011056;28;20688;-52
2022/04/03 03:11:36;;;;;;;1.60;1.50;;;13.70;49.90;14.90;101290.00;;;;5011392;28;20176;-53
2022/04/03 03:14:01;;;;;;;4.27;1.60;;;13.70;49.70;14.90;101280.00;;;;5011364;28;20172;-53
2022/04/03 03:16:27;;;;;;;1.60;1.50;;;13.70;49.80;14.90;101286.00;;;;5011079;28;20302;-52
2022/04/03 03:18:53;;;;;;;1.60;1.50;;;13.70;49.60;14.90;101278.00;;;;5011123;28;20727;-54
2022/04/03 03:21:19;;;;;;;1.83;1.70;;;13.70;49.70;14.90;101282.00;;;;5011172;28;20171;-52
2022/04/03 03:23:45;;;;;;;2.00;1.40;;;13.60;49.30;14.90;101284.00;;;;5011626;28;20574;-53
2022/04/03 03:26:11;;;;;;;1.60;1.50;;;13.70;49.40;14.90;101287.00;;;;4993778;28;20673;-52
2022/04/03 03:28:37;;;;;;;1.50;1.40;;;13.60;49.30;14.90;101290.00;;;;5011469;28;20211;-53
2022/04/03 03:31:02;;;;;;;6.20;1.60;;;13.60;49.80;14.80;101296.00;;;;5010907;28;20184;-53
2022/04/03 03:33:28;;;;;;;3.93;1.80;;;13.60;50.00;14.80;101289.00;;;;5011122;28;20175;-53
2022/04/03 03:35:55;;;;;;;2.03;1.50;;;13.60;49.80;14.80;101294.00;;;;5011027;28;20603;-53
2022/04/03 03:38:20;;;;;;;1.60;1.50;;;13.60;49.30;14.80;101299.00;;;;5010860;28;20175;-54
2022/04/03 03:40:47;;;;;;;1.87;1.43;;;13.70;49.40;14.80;101219.00;;;;5010824;28;20183;-53
2022/04/03 03:43:13;;;;;;;2.57;1.53;;;13.60;49.50;14.80;101294.00;;;;5011070;28;20175;-53
2022/04/03 03:45:39;;;;;;;2.43;1.60;;;13.60;49.50;14.80;101199.00;;;;5010608;28;20203;-54
2022/04/03 03:48:04;;;;;;;1.50;1.40;;;13.60;49.40;14.80;101284.00;;;;5009325;28;20171;-54
2022/04/03 03:50:30;;;;;;;1.70;1.60;;;13.60;49.30;14.80;101296.00;;;;5010634;28;20731;-53
2022/04/03 03:52:56;;;;;;;1.53;1.43;;;13.60;49.30;14.80;101300.00;;;;5010124;28;20192;-53
2022/04/03 03:55:21;;;;;;;1.50;1.40;;;13.60;49.30;14.80;101300.00;;;;5010492;28;20176;-54
2022/04/03 03:57:47;;;;;;;1.63;1.53;;;13.60;49.30;14.80;101302.00;;;;5010172;28;20319;-52
2022/04/03 04:00:14;;;;;;;1.47;1.37;;;13.60;49.20;14.70;101281.00;;;;5010011;28;20424;-54
2022/04/03 04:02:40;;;;;;;1.70;1.60;;;13.60;49.10;14.70;101301.00;;;;5009019;28;20211;-54
2022/04/03 04:05:06;;;;;;;1.40;1.20;;;13.50;49.00;14.70;101303.00;;;;5010141;28;20443;-53
2022/04/03 04:07:43;;;;;;;1.70;1.60;;;13.50;48.90;14.70;101322.00;;;;5010137;28;20172;-54
2022/04/03 04:10:12;;;;;;;1.73;1.60;;;13.50;48.90;14.70;101309.00;;;;5008715;28;20199;-54
2022/04/03 04:12:39;;;;;;;1.70;1.60;;;13.50;48.90;14.70;101308.00;;;;4990124;28;20188;-53
2022/04/03 04:15:06;;;;;;;1.80;1.60;;;13.50;48.80;14.70;101313.00;;;;4990348;28;20184;-54
2022/04/03 04:17:44;;;;;;;1.70;1.60;;;13.50;48.90;14.70;101316.00;;;;4989252;28;20187;-55
2022/04/03 04:20:16;;;;;;;1.70;1.50;;;13.50;48.80;14.70;101317.00;;;;4990029;28;20299;-55
2022/04/03 04:22:45;;;;;;;1.80;1.70;;;13.50;48.80;14.70;101319.00;;;;4990019;28;20168;-51
2022/04/03 04:25:12;;;;;;;2.20;1.70;;;13.60;48.80;14.70;101320.00;;;;5004677;28;20235;-54
2022/04/03 04:27:38;;;;;;;2.60;1.80;;;13.50;48.60;14.70;101327.00;;;;4990137;28;20183;-50
2022/04/03 04:30:04;;;;;;;2.37;1.77;;;13.50;48.60;14.60;101328.00;;;;4990044;28;20189;-53
2022/04/03 04:32:31;;;;;;;3.10;1.70;;;13.50;48.50;14.60;101324.00;;;;4990281;28;20176;-53
2022/04/03 04:34:57;;;;;;;4.40;1.80;;;13.50;48.30;14.60;101328.00;;;;4989794;28;20185;-53
2022/04/03 04:37:23;;;;;;;3.57;1.90;;;13.50;48.20;14.60;101327.00;;;;4989796;28;20180;-53
2022/04/03 04:39:48;;;;;;;2.37;1.80;;;13.50;48.10;14.60;101324.00;;;;4989657;28;20692;-53
2022/04/03 04:42:14;;;;;;;2.53;2.20;;;13.40;48.20;14.60;101330.00;;;;5004942;28;20172;-51
2022/04/03 04:44:40;;;;;;;4.87;1.83;;;13.40;48.40;14.60;101333.00;;;;4989471;28;20570;-53
2022/04/03 04:47:06;;;;;;;5.47;1.90;;;13.40;48.50;14.60;101340.00;;;;4989770;28;20208;-55
2022/04/03 04:49:31;;;;;;;3.03;1.70;;;13.40;48.50;14.60;101338.00;;;;4989778;28;20194;-53
2022/04/03 04:51:57;;;;;;;2.63;1.80;;;13.40;48.40;14.50;101337.00;;;;5004862;28;20234;-55
2022/04/03 04:54:25;;;;;;;3.60;2.13;;;13.30;48.30;14.50;101350.00;;;;5004930;28;20183;-55
2022/04/03 04:56:50;;;;;;;2.30;1.73;;;13.30;48.40;14.50;101358.00;;;;4988838;28;20176;-53
2022/04/03 04:59:17;;;;;;;2.47;1.80;;;13.40;48.30;14.50;101349.00;;;;4989813;28;20231;-53
2022/04/03 05:01:42;;;;;;;2.10;1.80;;;13.30;48.30;14.50;101345.00;;;;4989953;28;20220;-54
2022/04/03 05:04:08;;;;;;;1.80;1.70;;;13.30;48.20;14.50;101349.00;;;;4989605;28;20212;-52
2022/04/03 05:06:34;;;;;;;1.80;1.70;;;13.30;48.30;14.50;101346.00;;;;5003975;28;20207;-53
2022/04/03 05:09:01;;;;;;;3.37;1.80;;;13.30;48.40;14.50;101363.00;;;;5004620;28;20184;-52
2022/04/03 05:11:27;;;;;;;1.87;1.77;;;13.20;48.30;14.50;101360.00;;;;4989496;28;20659;-53
2022/04/03 05:13:52;;;;;;;2.00;1.80;;;13.20;48.30;14.50;101365.00;;;;5004839;28;20153;-52
2022/04/03 05:16:19;;;;;;;1.87;1.70;;;13.30;48.20;14.50;101363.00;;;;4989442;28;20243;-53
2022/04/03 05:18:44;;;;;;;2.10;1.80;;;13.30;48.80;14.40;101368.00;;;;4996205;28;20184;-52
2022/04/03 05:21:10;;;;;;;1.90;1.60;;;13.30;48.20;14.40;101365.00;;;;5005837;28;20202;-54
2022/04/03 05:23:38;;;;;;;1.80;1.70;;;13.30;48.20;14.40;101369.00;;;;5005362;28;20550;-53
2022/04/03 05:26:04;;;;;;;2.00;1.80;;;13.20;48.10;14.40;101373.00;;;;4995821;28;20204;-55
2022/04/03 05:28:30;;;;;;;2.27;1.80;;;13.20;48.10;14.40;101374.00;;;;5007493;28;20203;-54
2022/04/03 05:30:55;;;;;;;1.80;1.70;;;13.20;48.10;14.40;101374.00;;;;5008953;28;20171;-53
2022/04/03 05:33:22;;;;;;;1.90;1.70;;;13.20;48.10;14.40;101380.00;;;;5008085;28;20171;-54
2022/04/03 05:35:48;;;;;;;2.00;1.70;;;13.20;48.00;14.40;101383.00;;;;5007681;28;20175;-55
2022/04/03 05:38:14;;;;;;;1.70;1.60;;;13.20;48.00;14.40;101402.00;;;;5009325;28;20182;-55
2022/04/03 05:40:40;;;;;;;1.87;1.73;;;13.10;48.00;14.40;101391.00;;;;5001576;28;20192;-55
2022/04/03 05:43:06;;;;;;;2.07;1.60;;;13.10;48.00;14.30;101400.00;;;;4986771;28;20187;-55
2022/04/03 05:45:31;;;;;;;1.80;1.70;;;13.10;48.10;14.30;101407.00;;;;4985405;28;20200;-54
2022/04/03 05:47:57;;;;;;;1.70;1.60;;;13.10;48.00;14.30;101397.00;;;;4987809;28;20259;-54
2022/04/03 05:50:23;;;;;;;1.93;1.70;;;13.10;48.00;14.30;101409.00;;;;4998152;28;20250;-55
2022/04/03 05:52:51;;;;;;;1.73;1.63;;;13.10;48.00;14.30;101400.00;;;;5008910;28;20176;-54
2022/04/03 05:55:19;;;;;;;1.90;1.63;;;13.10;48.00;14.30;101405.00;;;;5006629;28;20204;-55
2022/04/03 05:57:46;;;;;;;1.77;1.67;;;13.10;48.10;14.30;101411.00;;;;5008232;28;20179;-54
2022/04/03 06:00:13;;;;;;;1.60;1.50;;;13.10;47.90;14.20;101404.00;;;;5007468;28;20731;-53
2022/04/03 06:02:57;;;;;;;1.70;1.60;;;13.00;47.80;14.30;101410.00;;;;5009037;28;20187;-53
2022/04/03 06:05:25;;;;;;;1.60;1.50;;;13.00;47.90;14.20;101411.00;;;;5007640;28;20219;-54
2022/04/03 06:07:51;;;;;;;1.63;1.53;;;13.00;47.80;14.20;101414.00;;;;5008071;28;20735;-54
2022/04/03 06:10:18;;;;;;;1.40;1.40;;;13.00;47.70;14.20;101410.00;;;;5008424;28;20199;-53
2022/04/03 06:13:04;;;;;;;1.60;1.50;;;13.00;47.90;14.20;101417.00;;;;5008651;28;20182;-53
2022/04/03 06:15:38;;;;;;;1.53;1.43;;;13.00;47.90;14.20;101413.00;;;;5007992;28;20175;-53
2022/04/03 06:18:06;;;;;;;1.60;1.50;;;12.90;47.90;14.20;101420.00;;;;5010842;28;20206;-53
2022/04/03 06:20:32;;;;;;;2.57;1.80;;;12.90;47.90;14.20;101428.00;;;;5012597;28;20249;-54
2022/04/03 06:22:58;;;;;;;1.87;1.77;;;12.90;47.90;14.10;101430.00;;;;5012645;28;20179;-53
2022/04/03 06:25:23;;;;;;;1.70;1.60;;;12.90;47.80;14.10;101427.00;;;;5011857;28;20672;-56
2022/04/03 06:27:51;;;;;;;1.70;1.60;;;12.90;47.90;14.10;101390.00;;;;5011705;28;20633;-54
2022/04/03 06:30:16;;;;;;;1.60;1.50;;;12.90;47.90;14.10;101432.00;;;;5012178;28;20203;-52
2022/04/03 06:32:42;;;;;;;1.77;1.67;;;12.90;47.90;14.10;101431.00;;;;5012446;28;20176;-53
2022/04/03 06:35:08;;;;;;;1.80;1.70;;;12.90;47.80;14.10;101417.00;;;;5011754;28;20171;-53
2022/04/03 06:37:34;;;;;;;1.80;1.70;;;12.90;47.80;14.10;101432.00;;;;5011846;28;20258;-53
2022/04/03 06:40:00;;;;;;;1.70;1.60;;;12.90;47.80;14.00;101432.00;;;;5011958;28;20312;-54
2022/04/03 06:42:27;;;;;;;1.70;1.60;;;12.90;47.80;14.10;101417.00;;;;5012115;28;20258;-52
2022/04/03 06:44:53;;;;;;;1.80;1.70;;;12.80;47.70;14.00;101438.00;;;;5010157;28;20805;-53
2022/04/03 06:47:18;;;;;;;1.80;1.70;;;12.80;47.80;14.00;101428.00;;;;5010182;28;20179;-53
2022/04/03 06:49:44;;;;;;;1.73;1.63;;;12.80;47.80;14.00;101432.00;;;;5010581;28;20187;-54
2022/04/03 06:52:10;;;;;;;1.70;1.60;;;12.80;47.80;14.00;101435.00;;;;5011295;28;20705;-55
2022/04/03 06:54:36;;;;;;;1.60;1.50;;;12.70;47.80;14.00;101434.00;;;;5011438;28;20659;-53
2022/04/03 06:57:02;;;;;;;1.80;1.70;;;12.80;47.80;14.00;101421.00;;;;5010350;28;20184;-52
2022/04/03 06:59:29;;;;;;;1.60;1.50;;;12.70;47.90;14.00;101445.00;;;;5011346;28;20207;-54
2022/04/03 07:01:55;;;;;;;1.83;1.73;;;12.70;47.80;14.00;101440.00;;;;5011729;28;20218;-52
2022/04/03 07:04:21;;;;;;;2.03;1.90;;;12.70;47.90;13.90;101441.00;;;;5010257;28;20199;-53
2022/04/03 07:06:46;;;;;;;1.80;1.70;;;12.70;47.80;13.90;101453.00;;;;5010720;28;20206;-55
2022/04/03 07:09:12;;;;;;;1.80;1.70;;;12.70;47.80;13.90;101447.00;;;;5011153;28;20211;-54
2022/04/03 07:11:38;;;;;;;1.87;1.60;;;12.70;47.80;13.90;101433.00;;;;5011482;28;20159;-54
2022/04/03 07:14:04;;;;;;;1.90;1.70;;;12.70;47.90;13.90;101428.00;;;;5011395;28;20172;-54
2022/04/03 07:16:29;;;;;;;1.90;1.80;;;12.70;48.00;13.90;101436.00;;;;5010413;28;20171;-53
2022/04/03 07:18:55;;;;;;;1.77;1.67;;;12.60;48.00;13.90;101439.00;;;;5011303;28;20790;-54
2022/04/03 07:21:21;;;;;;;1.80;1.70;;;12.70;48.20;13.90;101438.00;;;;5011357;28;20522;-56
2022/04/03 07:23:46;;;;;;;1.70;1.60;;;12.60;48.10;13.80;101434.00;;;;5011530;28;20210;-54
2022/04/03 07:26:12;;;;;;;1.90;1.80;;;12.60;48.10;13.80;101455.00;;;;5010598;28;20199;-55
2022/04/03 07:28:38;;;;;;;1.70;1.60;;;12.60;48.10;13.80;101441.00;;;;5010084;28;20639;-54
2022/04/03 07:31:04;;;;;;;2.10;1.90;;;12.60;48.20;13.80;101444.00;;;;5011336;28;20171;-54
2022/04/03 07:33:30;;;;;;;1.77;1.67;;;12.50;48.30;13.80;101456.00;;;;5011246;28;20168;-53
2022/04/03 07:35:55;;;;;;;1.80;1.70;;;12.60;48.30;13.80;101452.00;;;;5010832;28;20187;-53
2022/04/03 07:38:21;;;;;;;1.83;1.73;;;12.60;48.30;13.80;101446.00;;;;5010674;28;20175;-54
2022/04/03 07:40:47;;;;;;;1.87;1.77;;;12.60;48.30;13.80;101457.00;;;;5010616;28;20176;-53
2022/04/03 07:43:17;;;;;;;2.00;1.90;;;12.60;48.50;13.80;101453.00;;;;5010721;28;20179;-53
2022/04/03 07:45:43;;;;;;;1.63;1.53;;;12.50;48.40;13.70;101443.00;;;;5009473;28;20262;-53
2022/04/03 07:48:09;;;;;;;2.00;1.70;;;12.60;48.50;13.70;101456.00;;;;5008924;28;20275;-53
2022/04/03 07:50:35;;;;;;;1.87;1.77;;;12.50;48.40;13.70;101457.00;;;;5010583;28;20196;-53
2022/04/03 07:53:00;;;;;;;1.80;1.70;;;12.50;48.40;13.70;101453.00;;;;5010899;28;20659;-53
2022/04/03 07:55:26;;;;;;;1.90;1.70;;;12.50;48.40;13.70;101449.00;;;;5009785;28;20172;-54
2022/04/03 07:57:52;;;;;;;1.90;1.80;;;12.50;48.40;13.60;101460.00;;;;5009924;28;20179;-53
2022/04/03 08:00:17;;;;;;;2.57;1.90;;;12.50;48.40;13.60;101450.00;;;;5011030;28;20203;-54
2022/04/03 08:02:43;;;;;;;1.90;1.80;;;12.60;48.50;13.60;101457.00;;;;5010678;28;20203;-54
2022/04/03 08:05:09;;;;;;;1.90;1.80;;;12.50;48.40;13.60;101461.00;;;;5009460;28;20238;-54
2022/04/03 08:07:45;;;;;;;1.80;1.70;;;12.50;48.50;13.60;101468.00;;;;5010095;28;20561;-54
2022/04/03 08:10:18;;;;;;;1.90;1.80;;;12.50;48.60;13.60;101450.00;;;;5010130;28;20809;-55
2022/04/03 08:12:44;;;;;;;1.80;1.70;;;12.60;48.60;13.60;101446.00;;;;5009116;28;20647;-54
2022/04/03 08:15:10;;;;;;;1.90;1.80;;;12.60;48.70;13.60;101464.00;;;;5009029;28;20182;-54
2022/04/03 08:17:40;;;;;;;1.70;1.60;;;12.50;48.70;13.50;101465.00;;;;5010113;28;20211;-54
2022/04/03 08:20:08;;;;;;;1.90;1.80;;;12.50;48.70;13.50;101465.00;;;;5009873;28;20648;-54
2022/04/03 08:22:35;;;;;;;1.97;1.77;;;12.60;48.90;13.50;101461.00;;;;5008836;28;20199;-53
2022/04/03 08:25:02;;;;;;;2.00;1.80;;;12.60;49.30;13.50;101464.00;;;;5009298;28;20262;-54
2022/04/03 08:27:45;;;;;;;2.43;1.87;;;12.70;49.40;13.60;101471.00;;;;5011259;28;20194;-52
2022/04/03 08:30:16;;;;;;;2.27;1.80;;;12.90;49.40;13.70;101468.00;;;;5010564;28;20191;-53
2022/04/03 08:32:42;;;;;;;1.70;1.60;;;13.20;49.30;13.80;101462.00;;;;5009221;28;20167;-52
2022/04/03 08:35:08;;;;;;;1.80;1.70;;;13.50;48.90;14.00;101467.00;;;;5009123;28;20675;-55
2022/04/03 08:37:34;;;;;;;2.03;1.80;;;13.90;48.60;14.20;101459.00;;;;5009427;28;20175;-52
2022/04/03 08:40:00;;;;;;;2.70;1.53;;;14.20;48.20;14.40;101466.00;;;;5009614;28;20219;-54
2022/04/03 08:42:26;;;;;;;2.20;2.00;;;14.60;47.70;14.60;101462.00;;;;5010139;28;20259;-54
2022/04/03 08:44:52;;;;;;;2.80;1.60;;;14.90;47.30;14.80;101464.00;;;;5009262;28;20175;-53
2022/04/03 08:47:18;;;;;;;2.77;1.90;;;15.30;47.10;15.10;101462.00;;;;5009209;28;20174;-54
2022/04/03 08:49:44;;;;;;;2.10;1.77;;;15.60;46.60;15.30;101469.00;;;;5008620;28;20214;-55
2022/04/03 08:52:12;;;;;;;6.03;1.60;;;15.90;46.60;15.60;101471.00;;;;4991513;28;20713;-53
2022/04/03 08:54:38;;;;;;;1.50;1.40;;;16.20;47.10;15.80;101466.00;;;;4985776;28;20666;-54
2022/04/03 08:57:04;;;;;;;1.63;1.53;;;16.40;47.40;16.00;101465.00;;;;4985187;28;20203;-53
2022/04/03 08:59:29;;;;;;;2.97;1.60;;;16.60;47.40;16.20;101475.00;;;;4970376;28;20699;-53
2022/04/03 09:01:55;;;;;;;1.77;1.47;;;16.70;47.40;16.30;101480.00;;;;4970853;28;20266;-55
2022/04/03 09:04:21;;;;;;;1.70;1.50;;;16.70;46.90;16.50;101472.00;;;;4971515;28;20166;-55
2022/04/03 09:06:57;;;;;;;1.80;1.70;;;16.90;47.10;16.70;101471.00;;;;4969798;28;20211;-55
2022/04/03 09:09:24;;;;;;;1.90;1.70;;;17.00;47.00;16.80;101466.00;;;;4970320;28;20204;-52
2022/04/03 09:12:09;;;;;;;1.77;1.40;;;17.10;47.10;16.90;101459.00;;;;4970374;28;20177;-53
2022/04/03 09:14:35;;;;;;;1.40;1.30;;;17.20;47.00;17.00;101463.00;;;;4970224;28;20231;-53
2022/04/03 09:17:01;;;;;;;2.37;1.60;;;17.30;46.70;17.10;101462.00;;;;4968957;28;20766;-54
2022/04/03 09:19:34;;;;;;;1.63;1.50;;;17.40;46.90;17.30;101463.00;;;;4969911;28;20235;-53
2022/04/03 09:22:01;;;;;;;2.80;1.67;;;17.50;46.90;17.40;101460.00;;;;4970436;28;20191;-58
2022/04/03 09:24:27;;;;;;;3.37;1.60;;;17.60;47.00;17.50;101469.00;;;;4970035;28;20173;-56
2022/04/03 09:27:00;;;;;;;2.10;1.90;;;17.60;47.70;17.60;101462.00;;;;4968979;28;20197;-53
2022/04/03 09:29:26;;;;;;;1.40;1.30;;;17.70;47.80;17.70;101465.00;;;;4984755;28;20212;-55
2022/04/03 09:32:02;;;;;;;1.40;1.30;;;17.80;47.80;17.70;101477.00;;;;4969937;28;20173;-55
2022/04/03 09:34:29;;;;;;;2.37;1.60;;;17.80;47.90;17.80;101470.00;;;;4969942;28;20173;-54
2022/04/03 09:37:06;;;;;;;1.57;1.37;;;17.90;48.20;17.90;101479.00;;;;4969122;28;20311;-55
2022/04/03 09:39:32;;;;;;;2.20;1.60;;;17.90;48.20;18.00;101475.00;;;;4969333;28;20279;-54
2022/04/03 09:42:06;;;;;;;1.47;1.37;;;17.90;49.00;18.10;101468.00;;;;4969997;28;20331;-53
2022/04/03 09:44:36;;;;;;;1.57;1.47;;;18.00;48.70;18.10;101475.00;;;;4969845;28;20184;-56
2022/04/03 09:47:32;;;;;;;1.43;1.33;;;18.00;49.90;18.20;101463.00;;;;4983992;28;20192;-54
2022/04/03 09:50:00;;;;;;;1.77;1.43;;;18.00;50.60;18.20;101472.00;;;;4970092;28;20197;-55
2022/04/03 09:52:43;;;;;;;1.40;1.30;;;18.00;50.40;18.30;101469.00;;;;4972929;28;20654;-53
2022/04/03 09:55:20;;;;;;;2.27;1.30;;;18.10;50.10;18.30;101463.00;;;;4973429;28;20165;-54
2022/04/03 09:57:48;;;;;;;1.40;1.30;;;18.00;50.00;18.30;101459.00;;;;4972800;28;20168;-52
2022/04/03 10:00:34;;;;;;;2.30;1.20;;;18.00;49.90;18.40;101467.00;;;;4988346;28;20781;-55
2022/04/03 10:03:02;;;;;;;1.77;1.40;;;18.00;49.60;18.40;101401.00;;;;4973420;28;20173;-54
2022/04/03 10:05:29;;;;;;;1.60;1.50;;;18.00;49.60;18.40;101462.00;;;;4972796;28;20731;-54
2022/04/03 10:07:58;;;;;;;1.50;1.23;;;18.10;49.60;18.40;101463.00;;;;4972974;28;20205;-53
2022/04/03 10:10:24;;;;;;;2.40;1.33;;;18.10;49.70;18.40;101465.00;;;;4987302;28;20220;-55
2022/04/03 10:12:49;;;;;;;1.40;1.30;;;18.00;49.70;18.50;101467.00;;;;4988219;28;20180;-54
2022/04/03 10:15:15;;;;;;;2.73;1.40;;;18.00;49.60;18.50;101460.00;;;;4867246;28;20193;-54
2022/04/03 10:17:41;;;;;;;1.43;1.33;;;18.00;49.40;18.50;101452.00;;;;4978316;28;20188;-56
2022/04/03 10:20:09;;;;;;;2.47;1.43;;;18.00;49.50;18.50;101450.00;;;;4990931;28;20200;-55
2022/04/03 10:22:35;;;;;;;1.50;1.40;;;17.90;50.60;18.50;101464.00;;;;4991167;28;20855;-56
2022/04/03 10:25:05;;;;;;;4.70;1.30;;;18.00;51.10;18.50;101447.00;;;;4990330;28;20214;-56
2022/04/03 10:27:34;;;;;;;1.93;1.50;;;18.00;50.10;18.50;101449.00;;;;4976748;28;20180;-55
2022/04/03 10:29:59;;;;;;;2.63;1.40;;;18.10;49.90;18.60;101455.00;;;;4993503;28;20203;-55
2022/04/03 10:32:30;;;;;;;4.67;1.40;;;18.10;49.70;18.60;101460.00;;;;4990478;28;20176;-56
2022/04/03 10:35:09;;;;;;;1.13;1.07;;;18.20;49.50;18.70;101454.00;;;;4991662;28;20178;-54
2022/04/03 10:37:42;;;;;;;1.20;1.10;;;18.30;48.90;18.70;101462.00;;;;4991322;28;20656;-55
2022/04/03 10:40:16;;;;;;;2.30;1.50;;;18.40;48.90;18.80;101458.00;;;;4991812;28;20201;-55
2022/04/03 10:42:55;;;;;;;1.60;1.30;;;18.40;48.30;18.80;101452.00;;;;4992054;28;20179;-55
2022/04/03 10:45:34;;;;;;;1.60;1.30;;;18.40;48.00;18.80;101450.00;;;;4991223;28;20197;-56
2022/04/03 10:48:21;;;;;;;1.50;1.40;;;18.50;47.80;18.90;101446.00;;;;4991282;28;20172;-55